Hicksville, OH

7:03 PM EST on March 05, 2015 (GMT -0500)
Fort Wayne International | Change Station
CLOSE
Current Station
Airport
Location: Fort Wayne,
Elevation: 827 ft
Nearby Weather Stations

Elev 827 ft 40.98 °N, 85.19 °W | Updated 9 minutes ago

Overcast
Overcast
12 °F
Feels Like 2 °F
N
7
Wind Variable Wind from West

Today
High -- | Low -- °F
--% Chance of Precip.
Yesterday
High -- | Low -- °F
Precip. -- in
7:07 AM 6:34 PM
Full, 100% visible
Pressure 30.53 in
Visibility 10.0 miles
Clouds Few 4200 ft
Windchill 2 °F
Dew Point 6 °F
Humidity 77%
Rainfall 0.00 in
Snow Depth Not available.
UV 0 out of 12
Pollen .40 out of 12
Air Quality Not available.
Flu Activity Not available.
METAR KFWA 052354Z 28006KT 10SM FEW042 M11/M14 A3048 RMK AO2 SLP338 4/003 T11111144 11067 21111 51019

More Conditions Fewer Conditions

Pressure 30.53 in
Visibility 10.0 miles
Clouds Few 4200 ft
Windchill 2 °F
Dew Point 6 °F
Humidity 77%
Rainfall 0.00 in
Snow Depth Not available.
UV 0 out of 12
Pollen .40 out of 12
Air Quality Not available.
Flu Activity Not available.
METAR KFWA 052354Z 28006KT 10SM FEW042 M11/M14 A3048 RMK AO2 SLP338 4/003 T11111144 11067 21111 51019

More Conditions Fewer Conditions

10-Day Weather Forecast

Almanac

Astronomy

Mar. 05, 2015 Rise Set
Actual Time
Civil Twilight
Nautical Twilight
Astronomical Twilight
Moon
Length of Visible Light
Length of Day
Tomorrow will be .
, % of the Moon is Illuminated

Today's Extremes

State Highs State Lows

Community

WunderPhotos

Upload Photos

1,803,066 photos uploaded!

WunderBlogs® & News

Nearby

Air Quality

  Air Quality AQ Index Pollutant
Not available.

Snow Depth

Station Depth Elevation

Earthquake Activity

City Distance Mag. Time & Date
Minimum magnitude displayed is 2.5.

Coastal Water Temperatures

Place Temperature

Nearby Weather Stations